createdAt,value
2018-04-04T00:00:37.171Z,978.06
2018-04-04T00:01:37.399Z,978.06
2018-04-04T00:02:37.630Z,978.03
2018-04-04T00:03:37.846Z,978.03
2018-04-04T00:04:38.092Z,977.98
2018-04-04T00:05:38.344Z,977.99
2018-04-04T00:06:38.597Z,977.94
2018-04-04T00:07:38.834Z,977.92
2018-04-04T00:08:39.063Z,977.84
2018-04-04T00:09:39.292Z,977.86
2018-04-04T00:10:39.513Z,977.85
2018-04-04T00:11:39.747Z,977.87
2018-04-04T00:12:39.977Z,977.85
2018-04-04T00:13:40.207Z,977.85
2018-04-04T00:14:40.435Z,977.88
2018-04-04T00:15:40.666Z,977.88
2018-04-04T00:16:40.891Z,977.88
2018-04-04T00:17:41.118Z,977.89
2018-04-04T00:18:41.345Z,977.88
2018-04-04T00:19:41.588Z,977.88
2018-04-04T00:20:41.800Z,977.93
2018-04-04T00:21:42.039Z,977.96
2018-04-04T00:22:42.256Z,977.93
2018-04-04T00:23:42.487Z,977.98
2018-04-04T00:24:42.715Z,977.94
2018-04-04T00:25:42.941Z,977.90
2018-04-04T00:26:43.168Z,977.89
2018-04-04T00:27:43.396Z,977.91
2018-04-04T00:28:43.624Z,977.84
2018-04-04T00:29:43.854Z,977.88
2018-04-04T00:30:44.082Z,977.84
2018-04-04T00:31:44.310Z,977.85
2018-04-04T00:32:44.538Z,977.86
2018-04-04T00:33:44.766Z,977.87
2018-04-04T00:34:44.998Z,977.88
2018-04-04T00:35:45.224Z,977.93
2018-04-04T00:36:45.461Z,977.91
2018-04-04T00:37:45.686Z,977.92
2018-04-04T00:38:45.914Z,977.90
2018-04-04T00:39:46.140Z,977.95
2018-04-04T00:40:46.368Z,977.94
2018-04-04T00:41:46.603Z,977.88
2018-04-04T00:42:46.831Z,977.88
2018-04-04T00:43:47.063Z,977.84
2018-04-04T00:44:47.290Z,977.85
2018-04-04T00:45:47.520Z,977.84
2018-04-04T00:46:47.745Z,977.84
2018-04-04T00:47:47.978Z,977.88
2018-04-04T00:48:48.201Z,977.90
2018-04-04T00:49:48.428Z,977.95
2018-04-04T00:50:48.648Z,977.97
2018-04-04T00:51:48.877Z,977.93
2018-04-04T00:52:49.104Z,977.94
2018-04-04T00:53:49.323Z,977.94
2018-04-04T00:54:49.550Z,977.95
2018-04-04T00:55:49.776Z,977.97
2018-04-04T00:56:50.009Z,977.98
2018-04-04T00:57:50.234Z,977.95
2018-04-04T00:58:50.459Z,977.99
2018-04-04T00:59:50.690Z,978.00
2018-04-04T01:00:50.923Z,978.00
2018-04-04T01:01:51.152Z,977.95
2018-04-04T01:02:51.373Z,977.94
2018-04-04T01:03:51.599Z,977.94
2018-04-04T01:04:51.827Z,977.95
2018-04-04T01:05:52.058Z,977.98
2018-04-04T01:06:52.285Z,977.99
2018-04-04T01:07:52.514Z,977.98
2018-04-04T01:08:52.742Z,977.98
2018-04-04T01:09:52.968Z,978.02
2018-04-04T01:10:53.197Z,977.99
2018-04-04T01:11:53.426Z,978.02
2018-04-04T01:12:53.656Z,978.05
2018-04-04T01:13:53.886Z,978.06
2018-04-04T01:14:54.111Z,978.13
2018-04-04T01:15:54.337Z,978.08
2018-04-04T01:16:54.567Z,978.09
2018-04-04T01:17:54.796Z,978.07
2018-04-04T01:18:55.024Z,977.98
2018-04-04T01:19:55.255Z,978.00
2018-04-04T01:20:55.476Z,977.96
2018-04-04T01:21:55.707Z,978.02
2018-04-04T01:22:55.934Z,978.02
2018-04-04T01:23:56.159Z,978.05
2018-04-04T01:24:56.395Z,978.06
2018-04-04T01:25:56.622Z,978.07
2018-04-04T01:26:56.854Z,978.03
2018-04-04T01:27:57.081Z,978.00
2018-04-04T01:28:57.308Z,978.05
2018-04-04T01:29:57.532Z,978.05
2018-04-04T01:30:57.769Z,978.05
2018-04-04T01:31:57.993Z,978.03
2018-04-04T01:32:58.215Z,977.98
2018-04-04T01:33:58.440Z,978.01
2018-04-04T01:34:58.673Z,978.07
2018-04-04T01:35:58.906Z,978.12
2018-04-04T01:36:59.131Z,978.18
2018-04-04T01:37:59.363Z,978.23
2018-04-04T01:38:59.596Z,978.24
2018-04-04T01:39:59.818Z,978.25
2018-04-04T01:41:00.044Z,978.25
2018-04-04T01:42:00.272Z,978.23
2018-04-04T01:43:00.503Z,978.27
2018-04-04T01:44:00.731Z,978.29
2018-04-04T01:45:00.961Z,978.32
2018-04-04T01:46:01.213Z,978.32
2018-04-04T01:47:01.403Z,978.32
2018-04-04T01:48:01.625Z,978.32
2018-04-04T01:49:01.858Z,978.35
2018-04-04T01:50:02.089Z,978.43
2018-04-04T01:51:02.311Z,978.48
2018-04-04T01:52:02.540Z,978.51
2018-04-04T01:53:02.764Z,978.50
2018-04-04T01:54:02.993Z,978.46
2018-04-04T01:55:03.282Z,978.48
2018-04-04T01:56:03.453Z,978.50
2018-04-04T01:57:03.679Z,978.55
2018-04-04T01:58:03.914Z,978.56
2018-04-04T01:59:04.136Z,978.58
2018-04-04T02:00:04.361Z,978.56
2018-04-04T02:01:04.594Z,978.57
2018-04-04T02:02:04.818Z,978.58
2018-04-04T02:03:05.043Z,978.56
2018-04-04T02:04:05.261Z,978.55
2018-04-04T02:05:05.504Z,978.57
2018-04-04T02:06:05.733Z,978.55
2018-04-04T02:07:05.963Z,978.51
2018-04-04T02:08:06.190Z,978.52
2018-04-04T02:09:06.420Z,978.50
2018-04-04T02:10:06.648Z,978.51
2018-04-04T02:11:06.873Z,978.55
2018-04-04T02:12:07.100Z,978.53
2018-04-04T02:13:07.330Z,978.53
2018-04-04T02:14:07.556Z,978.56
2018-04-04T02:15:07.785Z,978.59
2018-04-04T02:16:08.015Z,978.55
2018-04-04T02:17:08.243Z,978.53
2018-04-04T02:18:08.480Z,978.56
2018-04-04T02:19:08.702Z,978.57
2018-04-04T02:20:08.929Z,978.63
2018-04-04T02:21:09.158Z,978.63
2018-04-04T02:22:09.413Z,978.63
2018-04-04T02:23:09.615Z,978.67
2018-04-04T02:24:09.844Z,978.64
2018-04-04T02:25:10.071Z,978.65
2018-04-04T02:26:10.306Z,978.70
2018-04-04T02:27:10.529Z,978.72
2018-04-04T02:28:10.759Z,978.77
2018-04-04T02:29:10.981Z,978.79
2018-04-04T02:30:11.210Z,978.79
2018-04-04T02:31:11.438Z,978.79
2018-04-04T02:32:11.661Z,978.81
2018-04-04T02:33:11.889Z,978.79
2018-04-04T02:34:12.117Z,978.78
2018-04-04T02:35:12.348Z,978.78
2018-04-04T02:36:12.571Z,978.79
2018-04-04T02:37:12.797Z,978.79
2018-04-04T02:38:13.030Z,978.77
2018-04-04T02:39:13.261Z,978.80
2018-04-04T02:40:13.492Z,978.79
2018-04-04T02:41:13.721Z,978.79
2018-04-04T02:42:13.941Z,978.80
2018-04-04T02:43:14.166Z,978.78
2018-04-04T02:44:14.392Z,978.81
2018-04-04T02:45:14.621Z,978.83
2018-04-04T02:46:14.852Z,978.87
2018-04-04T02:47:15.074Z,978.86
2018-04-04T02:48:15.302Z,978.90
2018-04-04T02:49:15.529Z,978.90
2018-04-04T02:50:15.754Z,978.92
2018-04-04T02:51:15.982Z,978.97
2018-04-04T02:52:16.211Z,978.97
2018-04-04T02:53:16.433Z,978.95
2018-04-04T02:54:16.660Z,978.96
2018-04-04T02:55:16.890Z,979.00
2018-04-04T02:56:17.122Z,979.01
2018-04-04T02:57:17.348Z,979.05
2018-04-04T02:58:17.616Z,979.05
2018-04-04T02:59:17.818Z,979.04
2018-04-04T03:00:18.049Z,979.04
2018-04-04T03:01:18.273Z,979.02
2018-04-04T03:02:18.499Z,979.03
2018-04-04T03:03:18.728Z,979.03
2018-04-04T03:04:18.954Z,979.03
2018-04-04T03:05:19.183Z,979.02
2018-04-04T03:06:19.408Z,978.98
2018-04-04T03:07:19.642Z,978.95
2018-04-04T03:08:19.865Z,978.96
2018-04-04T03:09:20.098Z,978.99
2018-04-04T03:10:20.322Z,979.02
2018-04-04T03:11:20.552Z,978.98
2018-04-04T03:12:20.772Z,979.00
2018-04-04T03:13:21.010Z,978.98
2018-04-04T03:14:21.239Z,978.97
2018-04-04T03:15:21.457Z,978.97
2018-04-04T03:16:21.703Z,978.96
2018-04-04T03:17:21.929Z,978.99
2018-04-04T03:18:22.158Z,979.00
2018-04-04T03:19:22.387Z,979.01
2018-04-04T03:20:22.613Z,979.03
2018-04-04T03:21:22.841Z,979.00
2018-04-04T03:22:23.078Z,978.98
2018-04-04T03:23:23.306Z,978.99
2018-04-04T03:24:23.530Z,978.97
2018-04-04T03:25:23.755Z,978.98
2018-04-04T03:26:23.987Z,978.97
2018-04-04T03:27:24.215Z,978.99
2018-04-04T03:28:24.448Z,979.03
2018-04-04T03:29:24.672Z,978.95
2018-04-04T03:30:24.902Z,978.97
2018-04-04T03:31:25.126Z,978.96
2018-04-04T03:32:25.356Z,979.01
2018-04-04T03:33:25.578Z,979.01
2018-04-04T03:34:25.809Z,979.05
2018-04-04T03:35:26.053Z,979.02
2018-04-04T03:36:26.265Z,978.98
2018-04-04T03:37:26.492Z,978.98
2018-04-04T03:38:26.718Z,979.02
2018-04-04T03:39:26.942Z,978.98
2018-04-04T03:40:27.171Z,978.99
2018-04-04T03:41:27.402Z,979.03
2018-04-04T03:42:27.626Z,979.00
2018-04-04T03:43:27.853Z,979.02
2018-04-04T03:44:28.085Z,979.09
2018-04-04T03:45:28.312Z,979.02
2018-04-04T03:46:28.542Z,979.05
2018-04-04T03:47:28.770Z,979.03
2018-04-04T03:48:29.006Z,979.04
2018-04-04T03:49:29.225Z,979.01
2018-04-04T03:50:29.453Z,979.01
2018-04-04T03:51:29.682Z,979.01
2018-04-04T03:52:29.950Z,979.05
2018-04-04T03:53:30.178Z,979.07
2018-04-04T03:54:30.402Z,979.06
2018-04-04T03:55:30.629Z,979.09
2018-04-04T03:56:30.857Z,979.11
2018-04-04T03:57:31.087Z,979.08
2018-04-04T03:58:31.313Z,979.08
2018-04-04T03:59:31.539Z,979.11
2018-04-04T04:00:31.768Z,979.09
2018-04-04T04:01:31.991Z,979.09
2018-04-04T04:02:32.217Z,979.09
2018-04-04T04:03:32.449Z,979.07
2018-04-04T04:04:32.676Z,979.10
2018-04-04T04:05:32.896Z,979.13
2018-04-04T04:06:33.127Z,979.11
2018-04-04T04:07:33.358Z,979.11
2018-04-04T04:08:33.578Z,979.06
2018-04-04T04:09:33.811Z,979.04
2018-04-04T04:10:34.047Z,979.10
2018-04-04T04:11:34.271Z,979.12
2018-04-04T04:12:34.503Z,979.11
2018-04-04T04:13:34.728Z,979.09
2018-04-04T04:14:34.954Z,979.12
2018-04-04T04:15:35.185Z,979.12
2018-04-04T04:16:35.409Z,979.11
2018-04-04T04:17:35.640Z,979.12
2018-04-04T04:18:35.865Z,979.12
2018-04-04T04:19:36.094Z,979.10
2018-04-04T04:20:36.318Z,979.10
2018-04-04T04:21:36.548Z,979.09
2018-04-04T04:22:36.773Z,979.12
2018-04-04T04:23:37.001Z,979.11
2018-04-04T04:24:37.231Z,979.07
2018-04-04T04:25:37.457Z,979.09
2018-04-04T04:26:37.689Z,979.09
2018-04-04T04:27:37.915Z,979.03
2018-04-04T04:28:38.142Z,979.06
2018-04-04T04:29:38.373Z,979.05
2018-04-04T04:30:38.595Z,979.08
2018-04-04T04:31:38.875Z,979.07
2018-04-04T04:32:39.057Z,979.11
2018-04-04T04:33:39.274Z,979.12
2018-04-04T04:34:39.501Z,979.12
2018-04-04T04:35:39.729Z,979.13
2018-04-04T04:36:39.953Z,979.14
2018-04-04T04:37:40.191Z,979.15
2018-04-04T04:38:40.410Z,979.15
2018-04-04T04:39:40.637Z,979.11
2018-04-04T04:40:40.869Z,979.12
2018-04-04T04:41:41.093Z,979.17
2018-04-04T04:42:41.319Z,979.17
2018-04-04T04:43:41.548Z,979.16
2018-04-04T04:44:41.776Z,979.17
2018-04-04T04:45:42.006Z,979.19
2018-04-04T04:46:42.229Z,979.19
2018-04-04T04:47:42.457Z,979.24
2018-04-04T04:48:42.686Z,979.20
2018-04-04T04:49:42.925Z,979.21
2018-04-04T04:50:43.142Z,979.24
2018-04-04T04:51:43.371Z,979.21
2018-04-04T04:52:43.603Z,979.26
2018-04-04T04:53:43.823Z,979.24
2018-04-04T04:54:44.057Z,979.27
2018-04-04T04:55:44.296Z,979.31
2018-04-04T04:56:44.513Z,979.30
2018-04-04T04:57:44.742Z,979.33
2018-04-04T04:58:44.970Z,979.32
2018-04-04T04:59:45.198Z,979.30
2018-04-04T05:00:45.428Z,979.29
2018-04-04T05:01:45.657Z,979.29
2018-04-04T05:02:45.881Z,979.25
2018-04-04T05:03:46.110Z,979.24
2018-04-04T05:04:46.342Z,979.24
2018-04-04T05:05:46.561Z,979.25
2018-04-04T05:06:46.787Z,979.30
2018-04-04T05:07:47.020Z,979.29
2018-04-04T05:08:47.254Z,979.27
2018-04-04T05:09:47.483Z,979.28
2018-04-04T05:10:47.710Z,979.25
2018-04-04T05:11:47.940Z,979.23
2018-04-04T05:12:48.167Z,979.27
2018-04-04T05:13:48.404Z,979.30
2018-04-04T05:14:48.618Z,979.30
2018-04-04T05:15:48.845Z,979.34
2018-04-04T05:16:49.088Z,979.34
2018-04-04T05:17:49.298Z,979.31
2018-04-04T05:18:49.523Z,979.28
2018-04-04T05:19:49.752Z,979.24
2018-04-04T05:20:49.980Z,979.30
2018-04-04T05:21:50.211Z,979.31
2018-04-04T05:22:50.438Z,979.30
2018-04-04T05:23:50.664Z,979.32
2018-04-04T05:24:50.886Z,979.35
2018-04-04T05:25:51.111Z,979.31
2018-04-04T05:26:51.339Z,979.29
2018-04-04T05:27:51.565Z,979.29
2018-04-04T05:28:51.794Z,979.31
2018-04-04T05:29:52.022Z,979.28
2018-04-04T05:30:52.250Z,979.27
2018-04-04T05:31:52.477Z,979.29
2018-04-04T05:32:52.715Z,979.28
2018-04-04T05:33:52.930Z,979.32
2018-04-04T05:34:53.159Z,979.35
2018-04-04T05:35:53.384Z,979.31
2018-04-04T05:36:53.613Z,979.32
2018-04-04T05:37:53.898Z,979.30
2018-04-04T05:38:54.069Z,979.28
2018-04-04T05:39:54.295Z,979.29
2018-04-04T05:40:54.525Z,979.29
2018-04-04T05:41:54.752Z,979.27
2018-04-04T05:42:54.986Z,979.25
2018-04-04T05:43:55.209Z,979.18
2018-04-04T05:44:55.434Z,979.13
2018-04-04T05:45:55.734Z,979.07
2018-04-04T05:46:55.889Z,979.05
2018-04-04T05:47:56.116Z,979.00
2018-04-04T05:48:56.342Z,978.99
2018-04-04T05:49:56.567Z,978.95
2018-04-04T05:50:56.793Z,978.89
2018-04-04T05:51:57.023Z,978.88
2018-04-04T05:52:57.251Z,978.92
2018-04-04T05:53:57.478Z,978.92
2018-04-04T05:54:57.705Z,978.94
2018-04-04T05:55:57.936Z,978.98
2018-04-04T05:56:58.169Z,979.09
2018-04-04T05:57:58.387Z,979.11
2018-04-04T05:58:58.613Z,979.14
2018-04-04T05:59:58.847Z,979.20
2018-04-04T06:00:59.069Z,979.14
2018-04-04T06:01:59.294Z,979.14
2018-04-04T06:02:59.520Z,979.12
2018-04-04T06:03:59.747Z,979.08
2018-04-04T06:04:59.977Z,979.10
2018-04-04T06:06:00.204Z,979.16
2018-04-04T06:07:00.426Z,979.17
2018-04-04T06:08:00.662Z,979.14
2018-04-04T06:09:00.890Z,979.15
2018-04-04T06:10:01.114Z,979.21
2018-04-04T06:11:01.346Z,979.20
2018-04-04T06:12:01.573Z,979.20
2018-04-04T06:13:01.809Z,979.16
2018-04-04T06:14:02.033Z,979.13
2018-04-04T06:15:02.248Z,979.20
2018-04-04T06:16:02.476Z,979.19
2018-04-04T06:17:02.706Z,979.18
2018-04-04T06:18:02.932Z,979.21
2018-04-04T06:19:03.164Z,979.19
2018-04-04T06:20:03.395Z,979.14
2018-04-04T06:21:03.612Z,979.14
2018-04-04T06:22:03.841Z,979.17
2018-04-04T06:23:04.076Z,979.16
2018-04-04T06:24:04.304Z,979.17
2018-04-04T06:25:04.528Z,979.14
2018-04-04T06:26:04.754Z,979.13
2018-04-04T06:27:04.985Z,979.17
2018-04-04T06:28:05.271Z,979.15
2018-04-04T06:29:05.441Z,979.15
2018-04-04T06:30:05.676Z,979.14
2018-04-04T06:31:05.902Z,979.20
2018-04-04T06:32:06.128Z,979.18
2018-04-04T06:33:06.357Z,979.15
2018-04-04T06:34:06.589Z,979.11
2018-04-04T06:35:06.816Z,979.13
2018-04-04T06:36:07.046Z,979.12
2018-04-04T06:37:07.278Z,979.10
2018-04-04T06:38:07.502Z,979.08
2018-04-04T06:39:07.732Z,979.11
2018-04-04T06:40:07.962Z,979.10
2018-04-04T06:41:08.192Z,979.07
2018-04-04T06:42:08.425Z,979.11
2018-04-04T06:43:08.658Z,979.04
2018-04-04T06:44:08.886Z,979.08
2018-04-04T06:45:09.112Z,979.05
2018-04-04T06:46:09.339Z,979.06
2018-04-04T06:47:09.566Z,979.01
2018-04-04T06:48:09.795Z,978.96
2018-04-04T06:49:10.043Z,978.97
2018-04-04T06:50:10.266Z,978.91
2018-04-04T06:51:10.493Z,978.94
2018-04-04T06:52:10.723Z,978.89
2018-04-04T06:53:10.956Z,978.87
2018-04-04T06:54:11.185Z,978.88
2018-04-04T06:55:11.420Z,978.91
2018-04-04T06:56:11.650Z,978.91
2018-04-04T06:57:11.878Z,978.90
2018-04-04T06:58:12.104Z,978.91
2018-04-04T06:59:12.340Z,978.95
2018-04-04T07:00:12.570Z,978.97
2018-04-04T07:01:12.799Z,978.95
2018-04-04T07:02:13.028Z,978.99
2018-04-04T07:03:13.261Z,978.92
2018-04-04T07:04:13.495Z,978.94
2018-04-04T07:05:13.721Z,978.94
2018-04-04T07:06:13.955Z,978.96
2018-04-04T07:07:14.182Z,978.99
2018-04-04T07:08:14.413Z,979.00
2018-04-04T07:09:14.638Z,978.97
2018-04-04T07:10:14.867Z,978.96
2018-04-04T07:11:15.098Z,978.90
2018-04-04T07:12:15.328Z,978.89
2018-04-04T07:13:15.560Z,978.85
2018-04-04T07:14:15.790Z,978.86
2018-04-04T07:15:16.015Z,978.85
2018-04-04T07:16:16.246Z,978.82
2018-04-04T07:17:16.473Z,978.84
2018-04-04T07:18:16.705Z,978.89
2018-04-04T07:19:16.939Z,978.86
2018-04-04T07:20:17.163Z,978.85
2018-04-04T07:21:17.393Z,978.86
2018-04-04T07:22:17.622Z,978.86
2018-04-04T07:23:17.853Z,978.86
2018-04-04T07:24:18.081Z,978.85
2018-04-04T07:25:18.315Z,978.77
2018-04-04T07:26:18.544Z,978.80
2018-04-04T07:27:18.776Z,978.74
2018-04-04T07:28:19.007Z,978.71
2018-04-04T07:29:19.240Z,978.76
2018-04-04T07:30:19.482Z,978.72
2018-04-04T07:31:19.698Z,978.73
2018-04-04T07:32:19.929Z,978.69
2018-04-04T07:33:20.166Z,978.67
2018-04-04T07:34:20.393Z,978.70
2018-04-04T07:35:20.625Z,978.69
2018-04-04T07:36:20.852Z,978.70
2018-04-04T07:37:21.078Z,978.78
2018-04-04T07:38:21.311Z,978.81
2018-04-04T07:39:21.542Z,978.85
2018-04-04T07:40:21.784Z,978.93
2018-04-04T07:41:22.008Z,978.96
2018-04-04T07:42:22.242Z,979.00
2018-04-04T07:43:22.478Z,979.01
2018-04-04T07:44:22.699Z,979.00
2018-04-04T07:45:22.929Z,978.99
2018-04-04T07:46:23.160Z,979.04
2018-04-04T07:47:23.392Z,979.08
2018-04-04T07:48:23.622Z,979.06
2018-04-04T07:49:23.853Z,979.07
2018-04-04T07:50:24.086Z,979.08
2018-04-04T07:51:24.317Z,979.11
2018-04-04T07:52:24.551Z,979.13
2018-04-04T07:53:24.782Z,979.17
2018-04-04T07:54:25.027Z,979.25
2018-04-04T07:55:25.255Z,979.22
2018-04-04T07:56:25.494Z,979.21
2018-04-04T07:57:25.713Z,979.16
2018-04-04T07:58:25.945Z,979.10
2018-04-04T07:59:26.172Z,979.00
2018-04-04T08:00:26.402Z,978.96
2018-04-04T08:01:26.657Z,978.85
2018-04-04T08:02:26.883Z,978.72
2018-04-04T08:03:27.113Z,978.55
2018-04-04T08:04:27.346Z,978.38
2018-04-04T08:05:27.577Z,978.34
2018-04-04T08:06:27.813Z,978.40
2018-04-04T08:07:28.044Z,978.52
2018-04-04T08:08:28.275Z,978.61
2018-04-04T08:09:28.506Z,978.68
2018-04-04T08:10:28.737Z,978.64
2018-04-04T08:11:28.966Z,978.65
2018-04-04T08:12:29.193Z,978.69
2018-04-04T08:13:29.418Z,978.69
2018-04-04T08:14:29.654Z,978.69
2018-04-04T08:15:29.878Z,978.77
2018-04-04T08:16:30.108Z,978.84
2018-04-04T08:17:30.337Z,978.87
2018-04-04T08:18:30.575Z,978.86
2018-04-04T08:19:30.799Z,978.86
2018-04-04T08:20:31.014Z,978.83
2018-04-04T08:21:31.248Z,978.82
2018-04-04T08:22:31.476Z,978.86
2018-04-04T08:23:31.717Z,978.82
2018-04-04T08:24:31.973Z,978.77
2018-04-04T08:25:32.170Z,978.83
2018-04-04T08:26:32.399Z,978.85
2018-04-04T08:27:32.629Z,978.85
2018-04-04T08:28:32.862Z,978.85
2018-04-04T08:29:33.092Z,978.91
2018-04-04T08:30:33.326Z,978.89
2018-04-04T08:31:33.558Z,978.90
2018-04-04T08:32:33.794Z,978.84
2018-04-04T08:33:34.016Z,978.83
2018-04-04T08:34:34.255Z,978.90
2018-04-04T08:35:34.483Z,978.88
2018-04-04T08:36:34.709Z,978.85
2018-04-04T08:37:34.937Z,978.80
2018-04-04T08:38:35.170Z,978.86
2018-04-04T08:39:35.403Z,978.89
2018-04-04T08:40:35.631Z,978.86
2018-04-04T08:41:35.862Z,978.88
2018-04-04T08:42:36.089Z,978.83
2018-04-04T08:43:36.321Z,978.42
2018-04-04T08:44:36.551Z,978.63
2018-04-04T08:45:36.782Z,978.68
2018-04-04T08:46:37.015Z,978.65
2018-04-04T08:47:37.242Z,978.70
2018-04-04T08:48:37.476Z,978.66
2018-04-04T08:49:37.703Z,978.57
2018-04-04T08:50:37.922Z,978.59
2018-04-04T08:51:38.153Z,978.48
2018-04-04T08:52:38.388Z,978.35
2018-04-04T08:53:38.620Z,978.45
2018-04-04T08:54:38.851Z,978.42
2018-04-04T08:55:39.079Z,978.41
2018-04-04T08:56:39.322Z,978.37
2018-04-04T08:57:39.555Z,978.36
2018-04-04T08:58:39.784Z,978.40
2018-04-04T08:59:40.016Z,978.41
2018-04-04T09:00:40.245Z,978.50
2018-04-04T09:01:40.477Z,978.53
2018-04-04T09:02:40.708Z,978.54
2018-04-04T09:03:40.942Z,978.54
2018-04-04T09:04:41.172Z,978.51
2018-04-04T09:05:41.402Z,978.55
2018-04-04T09:06:41.632Z,978.59
2018-04-04T09:07:41.863Z,978.57
2018-04-04T09:08:42.109Z,978.63
2018-04-04T09:09:42.339Z,978.66
2018-04-04T09:10:42.561Z,978.71
2018-04-04T09:11:42.792Z,978.74
2018-04-04T09:12:43.031Z,978.70
2018-04-04T09:13:43.255Z,978.70
2018-04-04T09:14:43.484Z,978.66
2018-04-04T09:15:43.716Z,978.64
2018-04-04T09:16:43.948Z,978.67
2018-04-04T09:17:44.172Z,978.63
2018-04-04T09:18:44.403Z,978.66
2018-04-04T09:19:44.635Z,978.64
2018-04-04T09:20:44.861Z,978.69
2018-04-04T09:21:45.089Z,978.68
2018-04-04T09:22:45.319Z,978.64
2018-04-04T09:23:45.553Z,978.56
2018-04-04T09:24:45.789Z,978.56
2018-04-04T09:25:46.017Z,978.55
2018-04-04T09:26:46.306Z,978.55
2018-04-04T09:27:46.511Z,978.51
2018-04-04T09:28:46.740Z,978.54
2018-04-04T09:29:46.967Z,978.51
2018-04-04T09:30:47.196Z,978.56
2018-04-04T09:31:47.423Z,978.62
2018-04-04T09:32:47.656Z,978.63
2018-04-04T09:33:47.888Z,978.63
2018-04-04T09:34:48.121Z,978.67
2018-04-04T09:35:48.359Z,978.66
2018-04-04T09:36:48.582Z,978.61
2018-04-04T09:37:48.812Z,978.68
2018-04-04T09:38:49.046Z,978.66
2018-04-04T09:39:49.283Z,978.62
2018-04-04T09:40:49.511Z,978.70
2018-04-04T09:41:49.740Z,978.61
2018-04-04T09:42:49.986Z,978.68
2018-04-04T09:43:50.203Z,978.67
2018-04-04T09:44:50.435Z,978.63
2018-04-04T09:45:50.667Z,978.66
2018-04-04T09:46:50.907Z,978.64
2018-04-04T09:47:51.132Z,978.63
2018-04-04T09:48:51.360Z,978.61
2018-04-04T09:49:51.592Z,978.58
2018-04-04T09:50:51.826Z,978.58
2018-04-04T09:51:52.066Z,978.63
2018-04-04T09:52:52.287Z,978.62
2018-04-04T09:53:52.515Z,978.60
2018-04-04T09:54:52.752Z,978.57
2018-04-04T09:55:52.980Z,978.56
2018-04-04T09:56:53.229Z,978.55
2018-04-04T09:57:53.450Z,978.55
2018-04-04T09:58:53.677Z,978.52
2018-04-04T09:59:53.911Z,978.55
2018-04-04T10:00:54.136Z,978.41
2018-04-04T10:01:54.369Z,978.48
2018-04-04T10:02:54.598Z,978.50
2018-04-04T10:03:54.832Z,978.42
2018-04-04T10:04:55.062Z,978.50
2018-04-04T10:05:55.295Z,978.50
2018-04-04T10:06:55.527Z,978.49
2018-04-04T10:07:55.768Z,978.46
2018-04-04T10:08:56.053Z,978.51
2018-04-04T10:09:56.222Z,978.48
2018-04-04T10:10:56.456Z,978.45
2018-04-04T10:11:56.690Z,978.38
2018-04-04T10:12:56.918Z,978.32
2018-04-04T10:32:17.399Z,978.12
2018-04-04T10:33:17.631Z,978.11
2018-04-04T10:34:17.862Z,978.02
2018-04-04T10:35:18.096Z,978.02
2018-04-04T10:36:18.329Z,977.98
2018-04-04T10:37:18.559Z,977.99
2018-04-04T10:38:18.793Z,978.04
2018-04-04T10:39:19.025Z,978.02
2018-04-04T10:40:19.258Z,978.00
2018-04-04T10:41:19.490Z,978.02
2018-04-04T10:42:19.719Z,977.96
2018-04-04T10:43:19.953Z,977.93
2018-04-04T10:44:20.185Z,977.91
2018-04-04T10:45:20.414Z,977.80
2018-04-04T10:46:20.661Z,977.79
2018-04-04T10:47:20.886Z,977.82
2018-04-04T10:48:21.123Z,977.83
2018-04-04T10:49:21.355Z,977.93
2018-04-04T10:50:21.595Z,977.85
2018-04-04T10:51:21.824Z,977.92
2018-04-04T10:52:22.052Z,977.86
2018-04-04T10:53:22.286Z,977.93
2018-04-04T10:54:22.518Z,977.97
2018-04-04T10:55:22.748Z,977.92
2018-04-04T10:56:23.002Z,977.92
2018-04-04T10:57:23.213Z,977.91
2018-04-04T10:58:23.445Z,977.91
2018-04-04T10:59:23.677Z,977.89
2018-04-04T11:00:23.909Z,977.90
2018-04-04T11:01:24.141Z,977.91
2018-04-04T11:02:24.374Z,977.88
2018-04-04T11:03:24.608Z,977.93
2018-04-04T11:04:24.840Z,977.90
2018-04-04T11:05:25.071Z,977.88
2018-04-04T11:06:25.303Z,977.91
2018-04-04T11:07:25.533Z,977.85
2018-04-04T11:08:25.768Z,977.85
2018-04-04T11:09:25.999Z,977.81
2018-04-04T11:10:26.238Z,977.82
2018-04-04T11:11:26.462Z,977.80
2018-04-04T11:12:26.695Z,977.82
2018-04-04T11:13:26.925Z,977.82
2018-04-04T11:14:27.158Z,977.84
2018-04-04T11:15:27.392Z,977.84
2018-04-04T11:16:27.621Z,977.83
2018-04-04T11:17:27.920Z,977.82
2018-04-04T11:18:28.087Z,977.81
2018-04-04T11:19:28.317Z,977.86
2018-04-04T11:20:28.548Z,977.82
2018-04-04T11:21:28.784Z,977.83
2018-04-04T11:22:29.018Z,977.82
2018-04-04T11:23:29.249Z,977.83
2018-04-04T11:24:29.481Z,977.79
2018-04-04T11:25:29.713Z,977.82
2018-04-04T11:26:29.944Z,977.79
2018-04-04T11:27:30.176Z,977.81
2018-04-04T11:28:30.408Z,977.82
2018-04-04T11:29:30.642Z,977.82
2018-04-04T11:30:30.872Z,977.79
2018-04-04T11:31:31.106Z,977.72
2018-04-04T11:32:31.340Z,977.69
2018-04-04T11:33:31.573Z,977.71
2018-04-04T11:34:31.804Z,977.63
2018-04-04T11:35:32.036Z,977.64
2018-04-04T11:36:32.269Z,977.55
2018-04-04T11:37:32.501Z,977.57
2018-04-04T11:38:32.730Z,977.55
2018-04-04T11:39:32.962Z,977.57
2018-04-04T11:40:33.198Z,977.53
2018-04-04T11:41:33.438Z,977.53
2018-04-04T11:42:33.666Z,977.55
2018-04-04T11:43:33.896Z,977.42
2018-04-04T11:44:34.127Z,977.36
2018-04-04T11:45:34.362Z,977.37
2018-04-04T11:46:34.593Z,977.34
2018-04-04T11:47:34.823Z,977.32
2018-04-04T11:48:35.059Z,977.31
2018-04-04T11:49:35.288Z,977.22
2018-04-04T11:50:35.522Z,977.19
2018-04-04T11:51:35.752Z,977.24
2018-04-04T11:52:35.984Z,977.20
2018-04-04T11:53:36.218Z,977.14
2018-04-04T11:54:36.449Z,977.09
2018-04-04T11:55:36.712Z,977.11
2018-04-04T11:56:36.938Z,976.93
2018-04-04T11:57:37.185Z,976.87
2018-04-04T11:58:37.418Z,976.86
2018-04-04T11:59:37.657Z,976.89
2018-04-04T12:00:37.883Z,976.90
2018-04-04T12:01:38.116Z,976.98
2018-04-04T12:02:38.349Z,976.94
2018-04-04T12:03:38.579Z,976.91
2018-04-04T12:04:38.812Z,976.87
2018-04-04T12:05:39.074Z,976.86
2018-04-04T12:06:39.282Z,976.86
2018-04-04T12:07:39.515Z,976.83
2018-04-04T12:08:39.748Z,976.79
2018-04-04T12:09:39.982Z,976.79
2018-04-04T12:10:40.220Z,976.75
2018-04-04T12:11:40.454Z,976.67
2018-04-04T12:12:40.694Z,976.67
2018-04-04T12:13:40.933Z,976.67
2018-04-04T12:14:41.785Z,976.63
2018-04-04T12:15:41.395Z,976.62
2018-04-04T12:16:41.629Z,976.60
2018-04-04T12:17:41.864Z,976.54
2018-04-04T12:18:42.098Z,976.55
2018-04-04T12:19:42.331Z,976.52
2018-04-04T12:20:42.562Z,976.52
2018-04-04T12:21:42.801Z,976.46
2018-04-04T12:22:43.029Z,976.45
2018-04-04T12:23:43.266Z,976.38
2018-04-04T12:24:43.497Z,976.39
2018-04-04T12:25:43.729Z,976.33
2018-04-04T12:26:43.968Z,976.29
2018-04-04T12:27:44.213Z,976.22
2018-04-04T12:28:44.434Z,976.26
2018-04-04T12:29:44.672Z,976.22
2018-04-04T12:30:44.906Z,976.22
2018-04-04T12:31:45.144Z,976.21
2018-04-04T12:32:45.390Z,976.17
2018-04-04T12:33:45.608Z,976.16
2018-04-04T12:34:45.838Z,976.19
2018-04-04T12:35:46.074Z,976.19
2018-04-04T12:36:46.309Z,976.19
2018-04-04T12:37:46.547Z,976.15
2018-04-04T12:38:46.778Z,976.19
2018-04-04T12:39:47.013Z,976.14
2018-04-04T12:40:47.248Z,976.15
2018-04-04T12:41:47.482Z,976.19
2018-04-04T12:42:47.715Z,976.18
2018-04-04T12:43:47.948Z,976.16
2018-04-04T12:44:48.181Z,976.14
2018-04-04T12:45:48.415Z,976.13
2018-04-04T12:46:48.676Z,976.11
2018-04-04T12:47:48.876Z,976.09
2018-04-04T12:48:49.110Z,976.03
2018-04-04T12:49:49.347Z,976.07